Time;durP1;ratioP1;P1;durP2;ratioP2;P2;SDS_P1;SDS_P2;PMS_P1;PMS_P2;Temp;Humidity;BMP_temperature;BMP_pressure;BME280_temperature;BME280_humidity;BME280_pressure;Samples;Min_cycle;Max_cycle;Signal;HPM_P1;HPM_P2
2021/10/30 00:01:24;;;;;;;33.40;27.57;;;10.20;99.90;;;;;;5071516;28;20639;-49
2021/10/30 00:03:51;;;;;;;33.10;28.30;;;10.10;99.90;;;;;;5053743;28;20869;-48
2021/10/30 00:06:18;;;;;;;33.57;28.70;;;10.20;99.90;;;;;;5071412;28;20777;-49
2021/10/30 00:08:45;;;;;;;34.63;30.73;;;9.70;99.90;;;;;;5071314;28;20521;-48
2021/10/30 00:11:12;;;;;;;37.33;30.10;;;9.90;99.90;;;;;;5071634;28;20491;-49
2021/10/30 00:13:38;;;;;;;39.83;31.10;;;10.10;99.90;;;;;;5071210;28;20437;-48
2021/10/30 00:16:07;;;;;;;36.70;31.50;;;10.10;99.90;;;;;;5071488;28;20505;-49
2021/10/30 00:18:34;;;;;;;33.23;29.50;;;9.70;99.90;;;;;;5052570;28;20578;-49
2021/10/30 00:21:01;;;;;;;38.00;31.30;;;9.90;99.90;;;;;;5053298;28;20853;-49
2021/10/30 00:23:30;;;;;;;38.10;29.60;;;10.10;99.90;;;;;;5071287;28;20433;-49
2021/10/30 00:25:57;;;;;;;40.80;31.63;;;9.90;99.90;;;;;;5071455;28;20433;-49
2021/10/30 00:28:23;;;;;;;36.67;30.57;;;9.70;99.90;;;;;;5070975;28;20499;-49
2021/10/30 00:30:50;;;;;;;37.00;32.37;;;9.80;99.90;;;;;;5071355;28;20537;-49
2021/10/30 00:33:18;;;;;;;43.50;31.50;;;9.80;99.90;;;;;;5052915;28;20957;-49
2021/10/30 00:35:45;;;;;;;35.90;30.80;;;9.80;99.90;;;;;;5073633;28;20958;-49
2021/10/30 00:38:11;;;;;;;38.53;31.40;;;9.90;99.90;;;;;;5071256;28;20563;-49
2021/10/30 00:40:38;;;;;;;37.43;31.53;;;9.70;99.90;;;;;;5071297;28;20533;-49
2021/10/30 00:43:05;;;;;;;34.30;29.70;;;9.90;99.90;;;;;;5053372;28;20481;-49
2021/10/30 00:45:32;;;;;;;38.73;29.63;;;9.80;99.90;;;;;;5071450;28;20465;-50
2021/10/30 00:47:59;;;;;;;38.83;29.80;;;9.70;99.90;;;;;;5070715;28;20445;-50
2021/10/30 00:50:27;;;;;;;36.40;31.00;;;9.90;99.90;;;;;;5053090;28;20459;-49
2021/10/30 00:52:55;;;;;;;36.00;31.53;;;9.70;99.90;;;;;;5071254;28;20541;-49
2021/10/30 00:55:23;;;;;;;36.83;31.30;;;9.70;99.90;;;;;;5053074;28;20540;-49
2021/10/30 00:57:55;;;;;;;43.93;30.50;;;9.70;99.90;;;;;;5070648;28;20521;-49
2021/10/30 01:00:22;;;;;;;35.00;30.50;;;9.60;99.90;;;;;;5071158;28;20499;-49
2021/10/30 01:02:51;;;;;;;36.33;29.50;;;9.70;99.90;;;;;;5071189;28;20491;-48
2021/10/30 01:05:18;;;;;;;33.30;29.53;;;9.70;99.90;;;;;;5071169;28;20487;-49
2021/10/30 01:07:47;;;;;;;38.83;30.97;;;9.60;99.90;;;;;;5070872;28;20454;-49
2021/10/30 01:10:14;;;;;;;35.90;30.73;;;9.80;99.90;;;;;;5071374;28;20516;-50
2021/10/30 01:12:41;;;;;;;38.90;31.30;;;9.70;99.90;;;;;;5071287;28;20823;-50
2021/10/30 01:15:09;;;;;;;36.30;32.40;;;9.50;99.90;;;;;;5053349;28;20880;-49
2021/10/30 01:17:35;;;;;;;34.63;30.27;;;9.60;99.90;;;;;;5070894;28;20555;-50
2021/10/30 01:20:05;;;;;;;37.20;33.10;;;9.60;99.90;;;;;;5053065;28;20450;-49
2021/10/30 01:22:35;;;;;;;37.33;32.30;;;9.70;99.90;;;;;;5071070;28;20466;-48
2021/10/30 01:25:03;;;;;;;40.20;32.83;;;9.60;99.90;;;;;;5053137;28;20430;-48
2021/10/30 01:27:30;;;;;;;37.80;30.67;;;9.70;99.90;;;;;;5074645;28;20795;-48
2021/10/30 01:29:57;;;;;;;37.70;31.37;;;9.90;99.90;;;;;;5074277;28;20980;-49
2021/10/30 01:32:24;;;;;;;37.50;31.47;;;9.80;99.90;;;;;;5074403;28;20426;-48
2021/10/30 01:34:53;;;;;;;37.97;32.30;;;9.70;99.90;;;;;;5074492;28;20432;-48
2021/10/30 01:37:21;;;;;;;37.43;31.00;;;9.40;99.90;;;;;;5074246;28;20572;-48
2021/10/30 01:39:48;;;;;;;35.03;31.17;;;9.40;99.90;;;;;;5074176;28;20444;-48
2021/10/30 01:42:15;;;;;;;36.20;32.00;;;9.70;99.90;;;;;;5056358;28;20540;-49
2021/10/30 01:44:42;;;;;;;39.50;33.10;;;9.70;99.90;;;;;;5074231;28;20453;-49
2021/10/30 01:47:12;;;;;;;43.47;34.53;;;9.90;99.90;;;;;;5073949;28;20830;-49
2021/10/30 01:49:39;;;;;;;38.07;30.83;;;9.60;99.90;;;;;;5073915;28;20433;-49
2021/10/30 01:52:06;;;;;;;38.33;31.10;;;9.60;99.90;;;;;;5057138;28;20427;-48
2021/10/30 01:54:34;;;;;;;44.43;33.10;;;9.70;99.90;;;;;;5078652;28;20430;-49
2021/10/30 01:57:01;;;;;;;35.80;31.50;;;9.70;99.90;;;;;;5073907;28;20970;-49
2021/10/30 01:59:31;;;;;;;38.57;30.27;;;9.70;99.90;;;;;;5056060;28;20448;-49
2021/10/30 02:01:59;;;;;;;43.97;33.87;;;9.00;99.90;;;;;;5073846;28;20405;-49
2021/10/30 02:04:27;;;;;;;35.23;31.53;;;9.60;99.90;;;;;;5073877;28;20930;-48
2021/10/30 02:07:00;;;;;;;34.23;30.57;;;9.60;99.90;;;;;;5074104;28;20461;-49
2021/10/30 02:09:27;;;;;;;37.40;32.63;;;9.50;99.90;;;;;;5073554;28;20974;-48
2021/10/30 02:11:58;;;;;;;36.67;31.67;;;9.70;99.90;;;;;;5073950;28;20425;-49
2021/10/30 02:14:29;;;;;;;36.67;31.67;;;9.60;99.90;;;;;;5073841;28;20560;-49
2021/10/30 02:16:56;;;;;;;39.57;33.43;;;9.60;99.90;;;;;;5073165;28;20488;-49
2021/10/30 02:19:22;;;;;;;36.90;32.20;;;9.60;99.90;;;;;;5073280;28;20461;-50
2021/10/30 02:21:49;;;;;;;38.33;31.20;;;9.60;99.90;;;;;;5055730;28;20527;-49
2021/10/30 02:24:16;;;;;;;35.70;30.83;;;9.50;99.90;;;;;;5073562;28;20517;-49
2021/10/30 02:26:42;;;;;;;34.03;29.93;;;9.60;99.90;;;;;;5073519;28;20549;-49
2021/10/30 02:29:10;;;;;;;38.73;31.60;;;9.70;99.90;;;;;;5055293;28;20521;-49
2021/10/30 02:31:37;;;;;;;38.07;30.80;;;9.40;99.90;;;;;;5055166;28;20476;-49
2021/10/30 02:34:04;;;;;;;37.63;32.37;;;9.60;99.90;;;;;;5073388;28;20488;-49
2021/10/30 02:36:33;;;;;;;41.67;33.13;;;9.50;99.90;;;;;;5054956;28;20448;-48
2021/10/30 02:38:59;;;;;;;38.43;34.00;;;9.50;99.90;;;;;;5072856;28;20441;-49
2021/10/30 02:41:26;;;;;;;37.27;31.83;;;9.50;99.90;;;;;;5073467;28;20930;-48
2021/10/30 02:43:53;;;;;;;39.50;32.20;;;9.60;99.90;;;;;;5073213;28;20516;-49
2021/10/30 02:46:21;;;;;;;43.87;31.77;;;9.50;99.90;;;;;;5072989;28;20536;-49
2021/10/30 02:48:48;;;;;;;36.23;31.70;;;9.60;99.90;;;;;;5072414;28;20439;-49
2021/10/30 02:51:15;;;;;;;38.90;32.47;;;9.50;99.90;;;;;;5073110;28;20444;-49
2021/10/30 02:53:45;;;;;;;38.87;32.47;;;9.50;99.90;;;;;;5073148;28;20430;-49
2021/10/30 02:56:11;;;;;;;37.40;32.30;;;9.60;99.90;;;;;;5072849;28;20469;-48
2021/10/30 02:58:40;;;;;;;36.60;30.70;;;9.40;99.90;;;;;;5072292;28;20487;-49
2021/10/30 03:01:09;;;;;;;43.13;34.67;;;9.40;99.90;;;;;;5054926;28;20449;-48
2021/10/30 03:03:37;;;;;;;38.67;33.83;;;9.20;99.90;;;;;;5072487;28;20461;-48
2021/10/30 03:06:04;;;;;;;45.63;33.17;;;9.40;99.90;;;;;;5072639;28;20495;-50
2021/10/30 03:08:31;;;;;;;40.20;33.90;;;9.40;99.90;;;;;;5072030;28;20524;-49
2021/10/30 03:10:58;;;;;;;37.53;32.90;;;9.30;99.90;;;;;;5055533;28;20450;-49
2021/10/30 03:13:25;;;;;;;38.20;33.20;;;9.30;99.90;;;;;;5056930;28;20443;-49
2021/10/30 03:15:51;;;;;;;38.17;33.40;;;9.30;99.90;;;;;;5072398;28;20439;-49
2021/10/30 03:18:18;;;;;;;38.80;32.43;;;9.10;99.90;;;;;;5071602;28;20994;-49
2021/10/30 03:20:46;;;;;;;42.17;33.17;;;9.20;99.90;;;;;;5054247;28;20456;-48
2021/10/30 03:23:13;;;;;;;39.67;33.30;;;9.20;99.90;;;;;;5072321;28;20430;-48
2021/10/30 03:25:40;;;;;;;37.10;31.50;;;9.10;99.90;;;;;;5072278;28;20460;-49
2021/10/30 03:28:07;;;;;;;35.87;30.87;;;9.30;99.90;;;;;;5054092;28;20764;-49
2021/10/30 03:30:36;;;;;;;34.93;31.23;;;9.10;99.90;;;;;;5072182;28;20491;-49
2021/10/30 03:33:03;;;;;;;37.90;30.80;;;8.70;99.90;;;;;;5071857;28;20503;-48
2021/10/30 03:35:30;;;;;;;36.20;30.40;;;9.10;99.90;;;;;;5072377;28;20528;-48
2021/10/30 03:37:58;;;;;;;35.77;31.13;;;9.10;99.90;;;;;;5071591;28;20535;-48
2021/10/30 03:40:24;;;;;;;38.50;33.17;;;9.10;99.90;;;;;;5054114;28;20454;-48
2021/10/30 03:42:51;;;;;;;41.53;33.27;;;9.20;99.90;;;;;;5054240;28;20473;-49
2021/10/30 03:45:19;;;;;;;36.70;31.40;;;9.00;99.90;;;;;;5053889;28;20473;-49
2021/10/30 03:47:46;;;;;;;37.50;29.97;;;9.10;99.90;;;;;;5071103;28;20496;-49
2021/10/30 03:50:13;;;;;;;36.87;29.87;;;9.20;99.90;;;;;;5071828;28;20425;-49
2021/10/30 03:52:39;;;;;;;43.00;33.60;;;8.80;99.90;;;;;;5071838;28;20777;-49
2021/10/30 03:55:09;;;;;;;40.93;32.83;;;8.80;99.90;;;;;;5071835;28;20438;-49
2021/10/30 03:57:36;;;;;;;38.40;30.77;;;9.00;99.90;;;;;;5071286;28;20477;-49
2021/10/30 04:00:04;;;;;;;37.00;29.37;;;8.80;99.90;;;;;;5053823;28;20975;-48
2021/10/30 04:02:39;;;;;;;37.47;30.60;;;8.90;99.90;;;;;;5071828;28;20433;-48
2021/10/30 04:05:07;;;;;;;41.47;33.27;;;9.00;99.90;;;;;;5071838;28;20450;-48
2021/10/30 04:07:33;;;;;;;37.53;30.80;;;8.80;99.90;;;;;;5053841;28;20564;-48
2021/10/30 04:10:01;;;;;;;36.40;32.33;;;8.90;99.90;;;;;;5053677;28;20454;-48
2021/10/30 04:12:29;;;;;;;33.07;29.03;;;8.90;99.90;;;;;;5053564;28;20820;-48
2021/10/30 04:14:56;;;;;;;36.33;31.73;;;8.80;99.90;;;;;;5071511;28;20870;-48
2021/10/30 04:17:23;;;;;;;40.60;32.17;;;8.80;99.90;;;;;;5054178;28;20521;-46
2021/10/30 04:19:50;;;;;;;38.20;32.23;;;8.80;99.90;;;;;;5071650;28;20656;-45
2021/10/30 04:22:16;;;;;;;39.83;32.07;;;8.80;99.90;;;;;;5071602;28;20994;-45
2021/10/30 04:24:43;;;;;;;38.27;31.40;;;8.40;99.90;;;;;;5071718;28;20874;-45
2021/10/30 04:27:10;;;;;;;36.73;30.70;;;8.90;99.90;;;;;;5053619;28;20469;-44
2021/10/30 04:29:38;;;;;;;36.43;32.20;;;8.80;99.90;;;;;;5072238;28;20437;-45
2021/10/30 04:32:06;;;;;;;36.30;30.97;;;8.70;99.90;;;;;;5074240;28;20437;-45
2021/10/30 04:34:41;;;;;;;35.90;29.60;;;8.70;99.90;;;;;;5071840;28;20448;-45
2021/10/30 04:37:15;;;;;;;36.63;31.70;;;8.70;99.90;;;;;;5071479;28;20485;-44
2021/10/30 04:39:42;;;;;;;37.10;31.50;;;8.70;99.90;;;;;;5071272;28;20437;-45
2021/10/30 04:42:08;;;;;;;39.93;32.33;;;8.90;99.90;;;;;;5053484;28;20986;-44
2021/10/30 04:44:35;;;;;;;37.57;31.60;;;8.60;99.90;;;;;;5053383;28;20485;-46
2021/10/30 04:47:04;;;;;;;36.20;31.20;;;8.60;99.90;;;;;;5071352;28;20445;-46
2021/10/30 04:49:31;;;;;;;39.00;32.47;;;8.60;99.90;;;;;;5053178;28;20417;-44
2021/10/30 04:51:57;;;;;;;34.00;30.30;;;8.60;99.90;;;;;;5071507;28;20444;-44
2021/10/30 04:54:24;;;;;;;40.47;32.27;;;8.40;99.90;;;;;;5071359;28;20494;-44
2021/10/30 04:56:51;;;;;;;36.93;32.90;;;8.70;99.90;;;;;;5071594;28;20484;-46
2021/10/30 04:59:17;;;;;;;45.37;32.67;;;8.60;99.90;;;;;;5071258;28;20972;-47
2021/10/30 05:01:44;;;;;;;34.33;30.03;;;8.60;99.90;;;;;;5075255;28;20449;-45
2021/10/30 05:04:12;;;;;;;38.90;29.60;;;8.50;99.90;;;;;;5075167;28;20437;-46
2021/10/30 05:06:39;;;;;;;38.37;31.17;;;8.60;99.90;;;;;;5075186;28;20456;-45
2021/10/30 05:09:06;;;;;;;37.80;29.43;;;8.40;99.90;;;;;;5076751;28;20407;-46
2021/10/30 05:11:32;;;;;;;35.30;29.83;;;8.70;99.90;;;;;;5076556;28;20960;-45
2021/10/30 05:13:59;;;;;;;41.50;29.90;;;8.40;99.90;;;;;;5075363;28;20453;-45
2021/10/30 05:16:26;;;;;;;33.40;28.97;;;8.70;99.90;;;;;;5074986;28;20529;-46
2021/10/30 05:18:53;;;;;;;33.57;30.00;;;8.80;99.90;;;;;;5074465;28;20477;-46
2021/10/30 05:21:21;;;;;;;34.77;29.00;;;8.70;99.90;;;;;;5074798;28;20455;-47
2021/10/30 05:23:47;;;;;;;32.50;27.90;;;8.80;99.90;;;;;;5074859;28;20469;-47
2021/10/30 05:26:14;;;;;;;39.23;29.20;;;8.70;99.90;;;;;;5074814;28;20400;-46
2021/10/30 05:28:41;;;;;;;35.33;29.87;;;8.70;99.90;;;;;;5074380;28;20481;-46
2021/10/30 05:31:07;;;;;;;40.80;28.47;;;8.60;99.90;;;;;;5074735;28;20524;-46
2021/10/30 05:33:34;;;;;;;32.90;27.40;;;8.60;99.90;;;;;;5056651;28;20440;-46
2021/10/30 05:36:25;;;;;;;37.73;29.30;;;8.60;99.90;;;;;;5074625;28;20531;-46
2021/10/30 05:38:57;;;;;;;37.10;28.63;;;8.50;99.90;;;;;;5056000;28;20505;-46
2021/10/30 05:41:24;;;;;;;37.20;28.37;;;8.70;99.90;;;;;;5074639;28;21107;-46
2021/10/30 05:43:50;;;;;;;35.27;28.83;;;8.80;99.90;;;;;;5074699;28;20490;-45
2021/10/30 05:46:18;;;;;;;33.13;27.07;;;8.50;99.90;;;;;;5074597;28;20426;-46
2021/10/30 05:48:45;;;;;;;34.87;27.47;;;9.00;99.90;;;;;;5059054;28;20474;-48
2021/10/30 05:51:14;;;;;;;37.67;30.17;;;8.50;99.90;;;;;;5075422;28;20444;-46
2021/10/30 05:53:43;;;;;;;36.63;29.07;;;8.50;99.90;;;;;;5074673;28;20987;-46
2021/10/30 05:56:09;;;;;;;34.70;27.97;;;8.50;99.90;;;;;;5074845;28;20433;-46
2021/10/30 05:58:36;;;;;;;35.37;29.00;;;8.50;99.90;;;;;;5073834;28;20558;-46
2021/10/30 06:01:05;;;;;;;39.17;29.83;;;8.10;99.90;;;;;;5074311;28;20397;-46
2021/10/30 06:03:32;;;;;;;38.03;30.33;;;8.50;99.90;;;;;;5074555;28;20976;-45
2021/10/30 06:05:59;;;;;;;32.83;28.93;;;8.60;99.90;;;;;;5074413;28;20457;-45
2021/10/30 06:08:26;;;;;;;32.57;28.23;;;8.10;99.90;;;;;;5074272;28;20459;-46
2021/10/30 06:10:55;;;;;;;31.90;27.33;;;8.40;99.90;;;;;;5073926;28;20405;-46
2021/10/30 06:13:21;;;;;;;33.07;26.90;;;8.30;99.90;;;;;;5073829;28;20954;-46
2021/10/30 06:15:48;;;;;;;32.93;27.63;;;8.40;99.90;;;;;;5074591;28;20479;-46
2021/10/30 06:18:15;;;;;;;30.40;27.07;;;8.00;99.90;;;;;;5073285;28;20551;-46
2021/10/30 06:20:42;;;;;;;32.30;26.23;;;8.60;99.90;;;;;;5055491;28;20467;-46
2021/10/30 06:23:09;;;;;;;33.60;28.37;;;8.60;99.90;;;;;;5073699;28;20419;-46
2021/10/30 06:25:36;;;;;;;31.30;27.90;;;8.50;99.90;;;;;;5073485;28;20503;-46
2021/10/30 06:28:04;;;;;;;30.13;25.23;;;8.70;99.90;;;;;;5073181;28;20464;-46
2021/10/30 06:30:31;;;;;;;33.93;27.67;;;8.40;99.90;;;;;;5073518;28;20909;-47
2021/10/30 06:32:58;;;;;;;33.50;27.90;;;8.70;99.90;;;;;;5073141;28;20444;-47
2021/10/30 06:35:24;;;;;;;32.40;26.20;;;8.50;99.90;;;;;;5055393;28;20412;-46
2021/10/30 06:37:51;;;;;;;33.93;26.50;;;8.80;99.90;;;;;;5072985;28;20543;-46
2021/10/30 06:40:20;;;;;;;36.90;26.93;;;8.60;99.90;;;;;;5055413;28;20616;-45
2021/10/30 06:42:47;;;;;;;30.87;27.27;;;8.50;99.90;;;;;;5073534;28;20945;-45
2021/10/30 06:45:15;;;;;;;35.63;27.00;;;8.40;99.90;;;;;;5073682;28;20568;-46
2021/10/30 06:47:42;;;;;;;32.60;27.33;;;8.60;99.90;;;;;;5072833;28;20966;-46
2021/10/30 06:50:18;;;;;;;33.63;26.20;;;8.80;99.90;;;;;;5073586;28;20428;-45
2021/10/30 06:52:45;;;;;;;37.13;26.63;;;8.80;99.90;;;;;;5073829;28;20676;-46
2021/10/30 06:55:12;;;;;;;32.30;26.60;;;8.80;99.90;;;;;;5073062;28;20983;-46
2021/10/30 06:57:39;;;;;;;32.17;26.70;;;8.70;99.90;;;;;;5073430;28;20449;-46
2021/10/30 07:00:09;;;;;;;29.33;25.43;;;8.30;99.90;;;;;;5055216;28;20424;-47
2021/10/30 07:02:37;;;;;;;32.17;25.40;;;8.70;99.90;;;;;;5073092;28;20441;-44
2021/10/30 07:05:05;;;;;;;31.27;26.40;;;8.80;99.90;;;;;;5073531;28;20429;-46
2021/10/30 07:07:34;;;;;;;31.20;24.60;;;8.80;99.90;;;;;;5075820;28;20437;-47
2021/10/30 07:10:01;;;;;;;36.87;27.40;;;8.80;99.90;;;;;;5073515;28;20483;-45
2021/10/30 07:12:29;;;;;;;32.20;28.37;;;8.80;99.90;;;;;;5054945;28;20623;-47
2021/10/30 07:14:56;;;;;;;30.03;26.77;;;9.00;99.90;;;;;;5073228;28;20433;-46
2021/10/30 07:17:23;;;;;;;28.63;25.63;;;8.80;99.90;;;;;;5056648;28;21051;-46
2021/10/30 07:19:52;;;;;;;30.47;27.13;;;8.90;99.90;;;;;;5075044;28;20466;-46
2021/10/30 07:22:19;;;;;;;31.93;27.40;;;9.10;99.90;;;;;;5074221;28;20524;-45
2021/10/30 07:24:46;;;;;;;28.60;25.50;;;8.90;99.90;;;;;;5054920;28;20962;-46
2021/10/30 07:27:16;;;;;;;29.97;25.80;;;8.90;99.90;;;;;;5073240;28;20432;-46
2021/10/30 07:29:44;;;;;;;33.97;25.43;;;9.10;99.90;;;;;;5055359;28;20980;-46
2021/10/30 07:32:11;;;;;;;27.83;24.90;;;9.10;99.90;;;;;;5074375;28;20430;-46
2021/10/30 07:34:38;;;;;;;33.90;25.60;;;9.20;99.90;;;;;;5055688;28;20877;-46
2021/10/30 07:37:06;;;;;;;28.20;24.27;;;9.30;99.90;;;;;;5075517;28;20424;-46
2021/10/30 07:39:34;;;;;;;31.80;26.33;;;9.10;99.90;;;;;;5076404;28;20528;-45
2021/10/30 07:42:01;;;;;;;27.80;23.33;;;9.30;99.90;;;;;;5075741;28;20462;-44
2021/10/30 07:44:27;;;;;;;28.10;24.03;;;9.40;99.90;;;;;;5075419;28;20438;-45
2021/10/30 07:46:54;;;;;;;32.23;24.97;;;9.30;99.90;;;;;;5073019;28;20536;-45
2021/10/30 07:49:21;;;;;;;31.47;25.73;;;9.30;99.90;;;;;;5055323;28;20446;-46
2021/10/30 07:51:48;;;;;;;33.17;25.87;;;9.40;99.90;;;;;;5072103;28;20737;-47
2021/10/30 07:54:16;;;;;;;28.47;24.13;;;9.40;99.90;;;;;;5072810;28;20495;-47
2021/10/30 07:56:45;;;;;;;30.13;24.40;;;9.00;99.90;;;;;;5072318;28;20473;-47
2021/10/30 07:59:12;;;;;;;26.50;23.50;;;9.60;99.90;;;;;;5053395;28;20845;-46
2021/10/30 08:01:39;;;;;;;27.40;23.73;;;9.50;99.90;;;;;;5054093;28;20454;-47
2021/10/30 08:04:06;;;;;;;30.70;23.73;;;9.50;99.90;;;;;;5072110;28;20480;-46
2021/10/30 08:06:33;;;;;;;30.70;24.53;;;9.60;99.90;;;;;;5072130;28;20429;-45
2021/10/30 08:08:59;;;;;;;26.57;23.73;;;9.80;99.90;;;;;;5071099;28;20540;-46
2021/10/30 08:11:27;;;;;;;28.23;24.97;;;9.60;99.90;;;;;;5072240;28;21013;-46
2021/10/30 08:13:57;;;;;;;28.53;24.43;;;9.50;99.90;;;;;;5053955;28;20426;-45
2021/10/30 08:16:24;;;;;;;27.70;24.70;;;9.70;99.90;;;;;;5071784;28;20436;-46
2021/10/30 08:18:51;;;;;;;24.97;22.27;;;9.60;99.90;;;;;;5071218;28;20499;-47
2021/10/30 08:21:19;;;;;;;30.77;26.20;;;10.00;99.90;;;;;;5053845;28;20534;-48
2021/10/30 08:23:49;;;;;;;30.07;24.10;;;9.90;99.90;;;;;;5072553;28;20432;-47
2021/10/30 08:26:16;;;;;;;30.50;25.37;;;10.10;99.90;;;;;;5073418;28;20884;-48
2021/10/30 08:28:44;;;;;;;33.27;25.87;;;10.00;99.90;;;;;;5070683;28;20458;-47
2021/10/30 08:31:11;;;;;;;27.20;24.43;;;9.90;99.90;;;;;;5054065;28;20921;-46
2021/10/30 08:33:37;;;;;;;26.47;23.67;;;9.60;99.90;;;;;;5071880;28;20479;-45
2021/10/30 08:36:05;;;;;;;28.13;24.83;;;9.80;99.90;;;;;;5057393;28;20497;-47
2021/10/30 08:38:32;;;;;;;26.60;23.10;;;10.10;99.90;;;;;;5057684;28;20901;-46
2021/10/30 08:40:59;;;;;;;27.90;23.23;;;10.10;99.90;;;;;;5075803;28;20430;-46
2021/10/30 08:43:29;;;;;;;27.83;24.17;;;10.10;99.90;;;;;;5076152;28;20433;-47
2021/10/30 08:45:59;;;;;;;27.93;22.90;;;10.20;99.90;;;;;;5075795;28;20458;-47
2021/10/30 08:48:29;;;;;;;27.53;23.20;;;10.20;99.90;;;;;;5076546;28;20541;-46
2021/10/30 08:50:56;;;;;;;26.60;22.33;;;10.30;99.90;;;;;;5076850;28;20922;-47
2021/10/30 08:53:25;;;;;;;32.37;23.93;;;10.30;99.90;;;;;;5076338;28;20438;-46
2021/10/30 08:55:52;;;;;;;27.80;24.00;;;10.30;99.90;;;;;;5058043;28;20485;-46
2021/10/30 08:58:20;;;;;;;29.50;25.30;;;10.40;99.90;;;;;;5075386;28;20456;-46
2021/10/30 09:00:49;;;;;;;24.70;21.70;;;10.60;99.90;;;;;;5057324;28;20460;-47
2021/10/30 09:03:19;;;;;;;29.80;22.33;;;10.50;99.90;;;;;;5075324;28;20469;-45
2021/10/30 09:05:49;;;;;;;29.37;25.90;;;10.70;99.90;;;;;;5076601;28;20474;-46
2021/10/30 09:08:17;;;;;;;23.63;20.67;;;10.80;99.90;;;;;;5075059;28;20439;-47
2021/10/30 09:10:46;;;;;;;26.10;22.53;;;10.60;99.90;;;;;;5075559;28;20434;-45
2021/10/30 09:13:14;;;;;;;24.83;21.40;;;10.70;99.90;;;;;;5057773;28;20453;-47
2021/10/30 09:15:42;;;;;;;26.30;22.40;;;10.80;99.90;;;;;;5076104;28;20408;-45
2021/10/30 09:18:24;;;;;;;26.13;22.40;;;10.80;99.90;;;;;;5057214;28;20535;-46
2021/10/30 09:20:52;;;;;;;26.10;23.33;;;11.00;99.90;;;;;;5075468;28;21009;-46
2021/10/30 09:23:20;;;;;;;26.90;20.97;;;10.90;99.90;;;;;;5075918;28;20430;-46
2021/10/30 09:25:56;;;;;;;22.53;20.13;;;10.90;99.90;;;;;;5076492;28;20445;-46
2021/10/30 09:28:23;;;;;;;24.70;22.00;;;11.00;99.90;;;;;;5076090;28;20466;-46
2021/10/30 09:31:01;;;;;;;26.10;21.20;;;11.40;99.90;;;;;;5075933;28;20937;-46
2021/10/30 09:33:30;;;;;;;23.47;21.17;;;11.10;99.90;;;;;;5074647;28;20466;-46
2021/10/30 09:35:58;;;;;;;25.83;23.00;;;11.20;99.90;;;;;;5057715;28;20995;-46
2021/10/30 09:38:32;;;;;;;30.03;20.57;;;11.30;99.90;;;;;;5075059;28;20478;-45
2021/10/30 09:41:03;;;;;;;25.73;19.43;;;11.10;99.90;;;;;;5076236;28;21011;-45
2021/10/30 09:43:30;;;;;;;22.27;19.87;;;11.30;99.90;;;;;;5075611;28;20938;-45
2021/10/30 09:46:06;;;;;;;24.67;22.13;;;11.30;99.90;;;;;;5074951;28;20518;-46
2021/10/30 09:48:41;;;;;;;21.90;19.60;;;11.40;99.90;;;;;;5074451;28;20457;-47
2021/10/30 09:51:07;;;;;;;25.80;20.80;;;11.40;99.90;;;;;;5074684;28;20438;-47
2021/10/30 09:53:35;;;;;;;24.20;21.27;;;11.50;99.90;;;;;;5056725;28;20461;-46
2021/10/30 09:56:08;;;;;;;23.80;20.20;;;11.40;99.90;;;;;;5075001;28;20852;-46
2021/10/30 09:58:37;;;;;;;30.67;21.73;;;11.50;99.90;;;;;;5056253;28;20467;-46
2021/10/30 10:01:09;;;;;;;21.77;19.57;;;11.50;99.90;;;;;;5075862;28;20782;-46
2021/10/30 10:03:38;;;;;;;21.53;19.20;;;11.70;99.90;;;;;;5056277;28;20447;-47
2021/10/30 10:06:07;;;;;;;23.23;20.80;;;11.60;99.90;;;;;;5075068;28;20439;-49
2021/10/30 10:08:38;;;;;;;21.10;18.90;;;11.60;99.90;;;;;;5055114;28;20489;-49
2021/10/30 10:11:07;;;;;;;22.87;19.13;;;11.70;99.90;;;;;;5055726;28;20970;-49
2021/10/30 10:13:38;;;;;;;21.30;18.13;;;11.60;99.90;;;;;;5073625;28;20990;-49
2021/10/30 10:16:06;;;;;;;22.23;18.30;;;11.70;99.90;;;;;;5074352;28;20506;-49
2021/10/30 10:18:35;;;;;;;21.23;19.03;;;11.80;99.90;;;;;;5096531;22;20495;-51
2021/10/30 10:21:04;;;;;;;20.53;18.53;;;11.80;99.90;;;;;;5071598;28;20475;-51
2021/10/30 10:23:32;;;;;;;21.60;18.93;;;11.50;99.90;;;;;;5072700;28;20426;-52
2021/10/30 10:25:59;;;;;;;20.20;18.10;;;11.90;99.90;;;;;;5072540;28;20456;-51
2021/10/30 10:28:32;;;;;;;20.03;17.93;;;11.70;99.90;;;;;;5071694;28;20449;-51
2021/10/30 10:31:09;;;;;;;21.97;18.43;;;12.20;99.90;;;;;;5072183;28;20814;-51
2021/10/30 10:33:36;;;;;;;22.97;19.03;;;12.20;99.90;;;;;;5072323;28;20446;-51
2021/10/30 10:36:26;;;;;;;22.40;19.20;;;12.00;99.90;;;;;;5072261;28;20435;-51
2021/10/30 10:39:16;;;;;;;21.83;19.63;;;12.10;99.90;;;;;;5071347;28;20508;-51
2021/10/30 10:42:04;;;;;;;21.90;18.80;;;12.00;99.90;;;;;;5071742;28;20472;-50
2021/10/30 10:45:02;;;;;;;21.80;18.73;;;12.10;99.90;;;;;;5071735;28;20437;-51
2021/10/30 10:48:00;;;;;;;24.30;19.50;;;12.00;99.90;;;;;;5053640;28;20464;-53
2021/10/30 10:50:37;;;;;;;23.00;19.13;;;12.20;99.90;;;;;;5053196;28;20874;-51
2021/10/30 10:53:28;;;;;;;21.63;18.63;;;12.20;99.90;;;;;;5071927;28;20977;-51
2021/10/30 10:56:22;;;;;;;20.70;18.47;;;12.20;99.90;;;;;;5053540;28;20455;-51
2021/10/30 10:59:14;;;;;;;20.40;18.00;;;12.20;99.90;;;;;;5070738;28;20519;-51
2021/10/30 11:02:15;;;;;;;20.00;17.90;;;12.30;99.90;;;;;;5072036;28;20476;-51
2021/10/30 11:04:42;;;;;;;20.90;18.70;;;12.20;99.90;;;;;;5053897;28;20446;-52
2021/10/30 11:07:17;;;;;;;21.43;18.40;;;12.30;99.90;;;;;;5071137;28;20535;-52
2021/10/30 11:09:56;;;;;;;22.90;20.37;;;12.50;99.90;;;;;;5053382;28;20501;-52
2021/10/30 11:12:25;;;;;;;18.50;16.60;;;12.40;99.90;;;;;;5070978;28;20790;-52
2021/10/30 11:14:57;;;;;;;19.70;17.20;;;12.80;99.90;;;;;;5071553;28;20436;-52
2021/10/30 11:17:25;;;;;;;22.40;17.50;;;12.50;99.90;;;;;;5052986;28;20517;-52
2021/10/30 11:19:52;;;;;;;20.83;18.60;;;12.50;99.90;;;;;;5070905;28;20500;-52
2021/10/30 11:22:23;;;;;;;20.47;18.37;;;12.70;99.90;;;;;;5071032;28;20457;-52
2021/10/30 11:24:53;;;;;;;20.40;17.20;;;12.70;99.90;;;;;;5071260;28;20884;-51
2021/10/30 11:27:24;;;;;;;22.13;17.67;;;12.60;99.90;;;;;;5071080;28;20518;-51
2021/10/30 11:29:52;;;;;;;20.20;18.20;;;12.60;99.90;;;;;;5052048;28;20838;-52
2021/10/30 11:32:20;;;;;;;20.33;18.13;;;12.70;99.90;;;;;;5071028;28;20536;-52
2021/10/30 11:34:51;;;;;;;21.07;17.33;;;12.70;99.90;;;;;;5071461;28;20512;-51
2021/10/30 11:37:21;;;;;;;19.83;17.47;;;12.70;99.90;;;;;;5052100;28;20538;-51
2021/10/30 11:39:50;;;;;;;21.40;17.83;;;12.50;99.90;;;;;;5052245;28;20514;-50
2021/10/30 11:42:17;;;;;;;19.50;17.40;;;12.90;99.90;;;;;;5069743;28;20436;-51
2021/10/30 11:44:56;;;;;;;19.70;17.70;;;12.50;99.90;;;;;;5070179;28;20671;-51
2021/10/30 11:47:27;;;;;;;19.80;17.10;;;13.10;99.90;;;;;;5052067;28;20479;-52
2021/10/30 11:49:54;;;;;;;18.87;16.97;;;12.70;99.90;;;;;;5069860;28;20414;-52
2021/10/30 11:52:21;;;;;;;20.20;16.70;;;12.90;99.90;;;;;;5069744;28;20904;-52
2021/10/30 11:54:48;;;;;;;19.63;16.53;;;13.00;99.90;;;;;;5070191;28;20466;-51
2021/10/30 11:57:17;;;;;;;18.73;16.90;;;13.00;99.90;;;;;;5051812;28;20963;-52
2021/10/30 11:59:45;;;;;;;19.80;17.80;;;13.00;99.90;;;;;;5069301;28;20459;-51
2021/10/30 12:02:16;;;;;;;20.33;18.07;;;13.20;99.90;;;;;;5051926;28;20475;-51
2021/10/30 12:04:44;;;;;;;26.80;18.87;;;12.90;99.90;;;;;;5070687;28;20434;-51
2021/10/30 12:07:14;;;;;;;19.47;17.30;;;13.10;99.90;;;;;;5069819;28;20555;-51
2021/10/30 12:09:43;;;;;;;22.57;17.90;;;12.90;99.90;;;;;;5068873;28;20448;-51
2021/10/30 12:12:12;;;;;;;20.07;18.07;;;13.40;99.50;;;;;;5070666;28;20973;-51
2021/10/30 12:14:40;;;;;;;23.93;18.57;;;13.50;99.30;;;;;;5070461;28;20417;-50
2021/10/30 12:17:10;;;;;;;21.33;18.57;;;13.10;99.10;;;;;;5052225;28;20533;-52
2021/10/30 12:19:40;;;;;;;19.20;17.17;;;13.60;99.40;;;;;;5069584;28;20483;-51
2021/10/30 12:22:09;;;;;;;20.70;18.60;;;13.40;99.20;;;;;;5069965;28;20507;-52
2021/10/30 12:24:38;;;;;;;21.57;17.50;;;13.40;99.10;;;;;;5070380;28;20929;-52
2021/10/30 12:27:07;;;;;;;20.17;17.23;;;13.60;99.10;;;;;;5070007;28;20822;-52
2021/10/30 12:29:41;;;;;;;20.87;18.77;;;13.50;99.00;;;;;;5050722;28;20462;-52
2021/10/30 12:32:10;;;;;;;24.77;18.70;;;13.60;98.90;;;;;;5069906;28;20927;-52
2021/10/30 12:34:39;;;;;;;20.07;17.90;;;13.60;98.90;;;;;;5069933;28;20425;-52
2021/10/30 12:37:08;;;;;;;19.33;17.33;;;13.70;98.90;;;;;;5051175;28;20999;-52
2021/10/30 12:39:35;;;;;;;20.73;18.53;;;13.50;98.60;;;;;;5069615;28;20414;-52
2021/10/30 12:42:04;;;;;;;19.83;17.73;;;13.60;98.70;;;;;;5069834;28;20782;-51